createdAt,value
2022-08-19T00:00:49.205Z,0.60
2022-08-19T00:01:52.911Z,0.50
2022-08-19T00:02:50.273Z,0.50
2022-08-19T00:03:49.206Z,0.50
2022-08-19T00:04:49.236Z,0.60
2022-08-19T00:05:49.209Z,0.60
2022-08-19T00:06:49.209Z,0.60
2022-08-19T00:07:49.209Z,0.50
2022-08-19T00:08:49.211Z,0.50
2022-08-19T00:09:49.211Z,0.60
2022-08-19T00:10:49.211Z,0.60
2022-08-19T00:11:49.211Z,0.40
2022-08-19T00:12:49.214Z,0.50
2022-08-19T00:13:49.214Z,0.60
2022-08-19T00:14:49.213Z,0.50
2022-08-19T00:15:49.213Z,0.50
2022-08-19T00:16:49.216Z,0.50
2022-08-19T00:17:49.216Z,0.60
2022-08-19T00:18:49.217Z,0.60
2022-08-19T00:19:49.216Z,0.50
2022-08-19T00:20:49.218Z,0.60
2022-08-19T00:21:49.219Z,0.60
2022-08-19T00:22:49.226Z,0.50
2022-08-19T00:23:49.218Z,0.60
2022-08-19T00:24:50.715Z,0.60
2022-08-19T00:25:49.222Z,0.50
2022-08-19T00:26:49.222Z,0.60
2022-08-19T00:27:49.221Z,0.50
2022-08-19T00:28:49.225Z,0.50
2022-08-19T00:29:52.364Z,0.50
2022-08-19T00:30:49.225Z,0.50
2022-08-19T00:31:50.727Z,0.50
2022-08-19T00:32:49.279Z,0.50
2022-08-19T00:33:49.378Z,0.50
2022-08-19T00:34:49.226Z,0.60
2022-08-19T00:35:54.637Z,0.50
2022-08-19T00:36:49.232Z,0.40
2022-08-19T00:37:49.231Z,0.50
2022-08-19T00:38:49.230Z,0.50
2022-08-19T00:39:49.398Z,0.50
2022-08-19T00:40:49.234Z,0.50
2022-08-19T00:41:49.233Z,0.60
2022-08-19T00:42:49.233Z,0.50
2022-08-19T00:43:49.235Z,0.50
2022-08-19T00:44:49.233Z,0.50
2022-08-19T00:45:49.298Z,0.50
2022-08-19T00:46:55.649Z,0.40
2022-08-19T00:47:49.237Z,0.40
2022-08-19T00:48:49.238Z,0.50
2022-08-19T00:49:49.240Z,0.50
2022-08-19T00:50:51.634Z,0.50
2022-08-19T00:51:49.241Z,0.50
2022-08-19T00:52:49.239Z,0.50
2022-08-19T00:53:49.243Z,0.50
2022-08-19T00:54:52.526Z,0.40
2022-08-19T00:55:49.242Z,0.40
2022-08-19T00:56:49.243Z,0.50
2022-08-19T00:57:49.247Z,0.50
2022-08-19T00:58:49.245Z,0.40
2022-08-19T00:59:56.525Z,0.50
2022-08-19T01:00:49.245Z,0.50
2022-08-19T01:01:49.334Z,0.50
2022-08-19T01:02:49.315Z,0.40
2022-08-19T01:03:58.000Z,0.40
2022-08-19T01:04:49.252Z,0.50
2022-08-19T01:05:49.251Z,0.40
2022-08-19T01:06:49.249Z,0.40
2022-08-19T01:07:49.252Z,0.40
2022-08-19T01:08:50.070Z,0.40
2022-08-19T01:09:49.255Z,0.40
2022-08-19T01:10:49.254Z,0.40
2022-08-19T01:11:49.255Z,0.40
2022-08-19T01:12:49.282Z,0.40
2022-08-19T01:13:50.398Z,0.40
2022-08-19T01:14:49.255Z,0.40
2022-08-19T01:15:49.257Z,0.50
2022-08-19T01:16:49.257Z,0.40
2022-08-19T01:17:49.258Z,0.40
2022-08-19T01:18:49.257Z,0.40
2022-08-19T01:19:49.259Z,0.40
2022-08-19T01:20:49.261Z,0.50
2022-08-19T01:21:49.261Z,0.40
2022-08-19T01:22:49.396Z,0.50
2022-08-19T01:23:49.261Z,0.40
2022-08-19T01:24:49.920Z,0.40
2022-08-19T01:25:49.265Z,0.40
2022-08-19T01:26:49.267Z,0.50
2022-08-19T01:27:49.266Z,0.40
2022-08-19T01:28:49.265Z,0.50
2022-08-19T01:29:49.269Z,0.50
2022-08-19T01:30:51.119Z,0.50
2022-08-19T01:31:49.267Z,0.40
2022-08-19T01:32:49.275Z,0.40
2022-08-19T01:33:49.420Z,0.40
2022-08-19T01:34:49.269Z,0.40
2022-08-19T01:35:49.271Z,0.40
2022-08-19T01:36:49.271Z,0.50
2022-08-19T01:37:49.273Z,0.40
2022-08-19T01:38:49.272Z,0.50
2022-08-19T01:39:49.366Z,0.40
2022-08-19T01:40:49.275Z,0.40
2022-08-19T01:41:49.277Z,0.50
2022-08-19T01:42:49.326Z,0.40
2022-08-19T01:44:09.925Z,0.50
2022-08-19T01:44:49.276Z,0.40
2022-08-19T01:45:49.278Z,0.50
2022-08-19T01:46:49.304Z,0.40
2022-08-19T01:47:52.696Z,0.40
2022-08-19T01:48:49.279Z,0.50
2022-08-19T01:49:49.282Z,0.40
2022-08-19T01:50:49.281Z,0.50
2022-08-19T01:51:49.281Z,0.40
2022-08-19T01:52:49.307Z,0.50
2022-08-19T01:53:49.285Z,0.40
2022-08-19T01:54:49.284Z,0.40
2022-08-19T01:55:49.286Z,0.40
2022-08-19T01:56:49.285Z,0.40
2022-08-19T01:57:49.287Z,0.50
2022-08-19T01:58:49.288Z,0.50
2022-08-19T01:59:49.286Z,0.50
2022-08-19T02:00:49.288Z,0.40
2022-08-19T02:01:49.343Z,0.50
2022-08-19T02:02:49.316Z,0.40
2022-08-19T02:03:49.291Z,0.40
2022-08-19T02:04:49.290Z,0.50
2022-08-19T02:05:49.292Z,0.50
2022-08-19T02:06:49.291Z,0.40
2022-08-19T02:07:49.292Z,0.40
2022-08-19T02:08:49.305Z,0.40
2022-08-19T02:09:49.297Z,0.40
2022-08-19T02:10:49.294Z,0.40
2022-08-19T02:11:49.305Z,0.40
2022-08-19T02:12:49.359Z,0.40
2022-08-19T02:13:49.299Z,0.40
2022-08-19T02:14:49.297Z,0.50
2022-08-19T02:15:49.298Z,0.50
2022-08-19T02:16:49.302Z,0.50
2022-08-19T02:17:49.299Z,0.40
2022-08-19T02:18:49.301Z,0.40
2022-08-19T02:19:49.302Z,0.40
2022-08-19T02:20:49.302Z,0.50
2022-08-19T02:21:49.304Z,0.50
2022-08-19T02:22:49.331Z,0.50
2022-08-19T02:23:49.305Z,0.40
2022-08-19T02:24:49.304Z,0.50
2022-08-19T02:25:49.305Z,0.40
2022-08-19T02:26:49.305Z,0.40
2022-08-19T02:27:49.306Z,0.50
2022-08-19T02:28:49.307Z,0.50
2022-08-19T02:29:49.309Z,0.50
2022-08-19T02:30:49.319Z,0.50
2022-08-19T02:31:49.310Z,0.50
2022-08-19T02:32:49.309Z,0.40
2022-08-19T02:33:49.312Z,0.40
2022-08-19T02:34:49.312Z,0.50
2022-08-19T02:35:49.327Z,0.40
2022-08-19T02:36:51.633Z,0.50
2022-08-19T02:37:49.315Z,0.40
2022-08-19T02:38:55.145Z,0.50
2022-08-19T02:39:49.374Z,0.40
2022-08-19T02:40:49.318Z,0.50
2022-08-19T02:41:49.316Z,0.40
2022-08-19T02:42:49.317Z,0.40
2022-08-19T02:44:30.455Z,0.50
2022-08-19T02:44:49.319Z,0.40
2022-08-19T02:45:49.320Z,0.40
2022-08-19T02:46:49.318Z,0.40
2022-08-19T02:47:49.322Z,0.40
2022-08-19T02:48:49.321Z,0.40
2022-08-19T02:49:49.323Z,0.40
2022-08-19T02:50:53.305Z,0.50
2022-08-19T02:51:49.325Z,0.40
2022-08-19T02:52:49.360Z,0.40
2022-08-19T02:53:49.326Z,0.40
2022-08-19T02:54:49.325Z,0.50
2022-08-19T02:55:49.327Z,0.50
2022-08-19T02:56:49.327Z,0.50
2022-08-19T02:57:49.328Z,0.40
2022-08-19T02:58:49.328Z,0.40
2022-08-19T02:59:49.329Z,0.50
2022-08-19T03:00:49.330Z,0.40
2022-08-19T03:01:49.332Z,0.50
2022-08-19T03:02:49.398Z,0.50
2022-08-19T03:03:49.331Z,0.40
2022-08-19T03:04:49.332Z,0.50
2022-08-19T03:05:56.858Z,0.60
2022-08-19T03:06:49.332Z,0.50
2022-08-19T03:07:49.335Z,0.50
2022-08-19T03:08:49.335Z,0.50
2022-08-19T03:09:49.336Z,0.50
2022-08-19T03:10:49.335Z,0.50
2022-08-19T03:11:49.357Z,0.40
2022-08-19T03:12:49.415Z,0.50
2022-08-19T03:13:49.340Z,0.50
2022-08-19T03:14:49.340Z,0.60
2022-08-19T03:15:49.340Z,0.50
2022-08-19T03:16:49.341Z,0.50
2022-08-19T03:17:49.341Z,0.40
2022-08-19T03:18:49.340Z,0.40
2022-08-19T03:19:49.343Z,0.50
2022-08-19T03:20:49.343Z,0.50
2022-08-19T03:21:49.346Z,0.50
2022-08-19T03:22:49.403Z,0.40
2022-08-19T03:23:49.346Z,0.40
2022-08-19T03:24:49.347Z,0.50
2022-08-19T03:26:03.253Z,0.50
2022-08-19T03:26:49.347Z,0.40
2022-08-19T03:27:49.348Z,0.50
2022-08-19T03:28:50.968Z,0.50
2022-08-19T03:29:49.350Z,0.40
2022-08-19T03:30:49.349Z,0.50
2022-08-19T03:31:52.417Z,0.50
2022-08-19T03:32:52.980Z,0.50
2022-08-19T03:33:49.353Z,0.50
2022-08-19T03:34:49.352Z,0.60
2022-08-19T03:35:49.354Z,0.60
2022-08-19T03:36:49.354Z,0.50
2022-08-19T03:37:49.360Z,0.50
2022-08-19T03:38:49.355Z,0.50
2022-08-19T03:39:49.428Z,0.40
2022-08-19T03:40:49.357Z,0.50
2022-08-19T03:41:49.359Z,0.50
2022-08-19T03:42:49.714Z,0.50
2022-08-19T03:43:49.360Z,0.60
2022-08-19T03:44:49.359Z,0.50
2022-08-19T03:45:49.362Z,0.50
2022-08-19T03:46:49.360Z,0.50
2022-08-19T03:47:49.367Z,0.60
2022-08-19T03:48:49.363Z,0.50
2022-08-19T03:49:49.365Z,0.50
2022-08-19T03:50:49.362Z,0.50
2022-08-19T03:51:49.367Z,0.40
2022-08-19T03:52:49.418Z,0.50
2022-08-19T03:53:49.367Z,0.50
2022-08-19T03:54:49.365Z,0.50
2022-08-19T03:55:49.368Z,0.60
2022-08-19T03:56:49.367Z,0.50
2022-08-19T03:57:49.370Z,0.60
2022-08-19T03:58:49.369Z,0.60
2022-08-19T03:59:49.375Z,0.50
2022-08-19T04:00:49.483Z,0.50
2022-08-19T04:01:49.375Z,0.60
2022-08-19T04:02:58.518Z,0.60
2022-08-19T04:03:49.374Z,0.40
2022-08-19T04:04:49.374Z,0.60
2022-08-19T04:05:49.376Z,0.60
2022-08-19T04:06:49.374Z,0.50
2022-08-19T04:07:49.378Z,0.60
2022-08-19T04:08:49.381Z,0.50
2022-08-19T04:09:49.380Z,0.60
2022-08-19T04:10:49.376Z,0.50
2022-08-19T04:11:49.379Z,0.60
2022-08-19T04:12:49.431Z,0.50
2022-08-19T04:13:49.382Z,0.50
2022-08-19T04:14:49.381Z,0.50
2022-08-19T04:15:49.383Z,0.50
2022-08-19T04:16:49.383Z,0.50
2022-08-19T04:17:49.384Z,0.50
2022-08-19T04:18:49.382Z,0.70
2022-08-19T04:19:49.385Z,0.60
2022-08-19T04:20:49.385Z,0.50
2022-08-19T04:21:49.388Z,0.50
2022-08-19T04:22:49.450Z,0.50
2022-08-19T04:23:49.387Z,0.50
2022-08-19T04:24:49.401Z,0.50
2022-08-19T04:25:49.388Z,0.60
2022-08-19T04:26:49.389Z,0.60
2022-08-19T04:27:49.392Z,0.50
2022-08-19T04:28:49.390Z,0.60
2022-08-19T04:29:49.393Z,0.60
2022-08-19T04:30:49.390Z,0.50
2022-08-19T04:31:49.392Z,0.60
2022-08-19T04:32:49.394Z,0.40
2022-08-19T04:33:49.648Z,0.70
2022-08-19T04:35:02.054Z,0.60
2022-08-19T04:35:49.397Z,0.50
2022-08-19T04:36:49.397Z,0.50
2022-08-19T04:37:49.400Z,0.50
2022-08-19T04:38:49.397Z,0.50
2022-08-19T04:39:49.572Z,0.50
2022-08-19T04:40:49.399Z,0.60
2022-08-19T04:41:49.399Z,0.40
2022-08-19T04:42:49.485Z,0.60
2022-08-19T04:43:49.402Z,0.50
2022-08-19T04:44:49.405Z,0.60
2022-08-19T04:45:49.403Z,0.60
2022-08-19T04:46:51.496Z,0.50
2022-08-19T04:47:58.124Z,0.60
2022-08-19T04:48:49.707Z,0.60
2022-08-19T04:49:49.406Z,0.60
2022-08-19T04:50:49.406Z,0.40
2022-08-19T04:51:49.406Z,0.60
2022-08-19T04:52:49.537Z,0.60
2022-08-19T04:53:49.409Z,0.60
2022-08-19T04:54:49.409Z,0.60
2022-08-19T04:55:49.410Z,0.60
2022-08-19T04:56:49.413Z,0.50
2022-08-19T04:57:49.410Z,0.50
2022-08-19T04:58:49.487Z,0.60
2022-08-19T04:59:49.413Z,0.40
2022-08-19T05:00:49.483Z,0.60
2022-08-19T05:01:49.415Z,0.40
2022-08-19T05:02:49.502Z,0.60
2022-08-19T05:03:49.414Z,0.60
2022-08-19T05:04:49.417Z,0.50
2022-08-19T05:05:49.418Z,0.40
2022-08-19T05:06:49.419Z,0.50
2022-08-19T05:07:49.417Z,0.60
2022-08-19T05:08:49.418Z,0.60
2022-08-19T05:09:57.719Z,0.50
2022-08-19T05:10:49.420Z,0.60
2022-08-19T05:11:49.421Z,0.60
2022-08-19T05:12:49.497Z,0.70
2022-08-19T05:13:49.422Z,0.50
2022-08-19T05:14:49.422Z,0.70
2022-08-19T05:15:49.423Z,0.60
2022-08-19T05:16:49.424Z,0.50
2022-08-19T05:17:49.424Z,0.60
2022-08-19T05:18:49.449Z,0.50
2022-08-19T05:19:49.427Z,0.50
2022-08-19T05:20:49.428Z,0.70
2022-08-19T05:21:49.428Z,0.70
2022-08-19T05:22:49.550Z,0.70
2022-08-19T05:23:49.429Z,0.60
2022-08-19T05:25:11.216Z,0.60
2022-08-19T05:25:49.431Z,0.60
2022-08-19T05:26:49.432Z,0.70
2022-08-19T05:27:49.434Z,0.50
2022-08-19T05:28:52.989Z,0.60
2022-08-19T05:29:49.433Z,0.50
2022-08-19T05:30:49.433Z,0.60
2022-08-19T05:31:49.435Z,0.60
2022-08-19T05:32:49.494Z,0.50
2022-08-19T05:33:49.536Z,0.60
2022-08-19T05:34:49.436Z,0.60
2022-08-19T05:35:49.477Z,0.60
2022-08-19T05:36:49.439Z,0.60
2022-08-19T05:37:49.439Z,0.60
2022-08-19T05:38:49.440Z,0.60
2022-08-19T05:39:51.560Z,0.60
2022-08-19T05:40:49.440Z,0.70
2022-08-19T05:41:49.441Z,0.60
2022-08-19T05:42:55.424Z,0.60
2022-08-19T05:43:49.442Z,0.70
2022-08-19T05:44:49.444Z,0.60
2022-08-19T05:45:49.444Z,0.70
2022-08-19T05:46:49.446Z,0.70
2022-08-19T05:47:49.444Z,0.60
2022-08-19T05:48:49.446Z,0.70
2022-08-19T05:49:49.446Z,0.60
2022-08-19T05:50:49.447Z,0.60
2022-08-19T05:51:49.448Z,0.70
2022-08-19T05:52:50.241Z,0.60
2022-08-19T05:53:49.450Z,0.70
2022-08-19T05:54:51.484Z,0.70
2022-08-19T05:55:49.451Z,0.80
2022-08-19T05:56:49.454Z,0.70
2022-08-19T05:57:49.454Z,0.60
2022-08-19T05:58:49.453Z,0.70
2022-08-19T05:59:49.530Z,0.70
2022-08-19T06:00:49.455Z,0.70
2022-08-19T06:01:49.456Z,0.70
2022-08-19T06:02:49.732Z,0.80
2022-08-19T06:03:49.457Z,0.70
2022-08-19T06:04:49.457Z,0.80
2022-08-19T06:05:51.781Z,0.70
2022-08-19T06:06:49.460Z,0.70
2022-08-19T06:07:49.533Z,0.70
2022-08-19T06:08:49.461Z,0.70
2022-08-19T06:10:00.056Z,0.80
2022-08-19T06:10:49.461Z,0.70
2022-08-19T06:11:51.797Z,0.60
2022-08-19T06:12:49.466Z,0.60
2022-08-19T06:13:49.463Z,0.70
2022-08-19T06:14:49.465Z,0.70
2022-08-19T06:15:49.464Z,0.70
2022-08-19T06:16:49.466Z,0.60
2022-08-19T06:17:49.506Z,0.60
2022-08-19T06:18:49.468Z,0.70
2022-08-19T06:19:49.467Z,0.70
2022-08-19T06:20:56.470Z,0.60
2022-08-19T06:21:49.469Z,0.80
2022-08-19T06:22:49.469Z,0.70
2022-08-19T06:23:49.474Z,0.60
2022-08-19T06:24:49.471Z,0.60
2022-08-19T06:25:49.472Z,0.70
2022-08-19T06:26:49.493Z,0.70
2022-08-19T06:28:13.366Z,0.70
2022-08-19T06:28:49.475Z,0.70
2022-08-19T06:29:49.477Z,0.70
2022-08-19T06:30:49.475Z,0.80
2022-08-19T06:31:49.475Z,0.80
2022-08-19T06:32:49.477Z,0.60
2022-08-19T06:33:50.207Z,0.60
2022-08-19T06:34:49.478Z,0.70
2022-08-19T06:35:49.479Z,0.60
2022-08-19T06:36:49.481Z,0.80
2022-08-19T06:37:49.493Z,0.60
2022-08-19T06:38:49.486Z,0.80
2022-08-19T06:39:49.529Z,0.70
2022-08-19T06:40:49.483Z,0.70
2022-08-19T06:41:52.472Z,0.60
2022-08-19T06:42:54.366Z,0.70
2022-08-19T06:43:49.485Z,0.70
2022-08-19T06:44:49.486Z,0.70
2022-08-19T06:45:49.512Z,0.70
2022-08-19T06:46:54.575Z,0.80
2022-08-19T06:47:49.486Z,0.60
2022-08-19T06:48:49.489Z,0.80
2022-08-19T06:49:49.488Z,0.60
2022-08-19T06:50:49.488Z,0.80
2022-08-19T06:51:49.493Z,0.80
2022-08-19T06:52:49.576Z,0.70
2022-08-19T06:54:56.330Z,0.70
2022-08-19T06:55:49.504Z,0.80
2022-08-19T06:56:49.513Z,0.80
2022-08-19T06:57:49.596Z,0.90
2022-08-19T06:58:49.496Z,0.80
2022-08-19T06:59:49.507Z,0.70
2022-08-19T07:00:49.498Z,0.80
2022-08-19T07:01:49.499Z,0.80
2022-08-19T07:02:53.229Z,0.80
2022-08-19T07:03:49.498Z,0.70
2022-08-19T07:04:52.573Z,0.70
2022-08-19T07:05:49.499Z,0.70
2022-08-19T07:06:55.138Z,0.90
2022-08-19T07:07:49.501Z,0.70
2022-08-19T07:08:49.503Z,0.60
2022-08-19T07:09:51.584Z,0.60
2022-08-19T07:10:49.502Z,0.70
2022-08-19T07:11:49.503Z,0.80
2022-08-19T07:12:49.630Z,0.80
2022-08-19T07:13:49.505Z,0.60
2022-08-19T07:14:49.507Z,0.70
2022-08-19T07:15:49.506Z,0.90
2022-08-19T07:16:49.512Z,0.90
2022-08-19T07:17:50.140Z,0.80
2022-08-19T07:18:49.509Z,0.70
2022-08-19T07:19:49.511Z,0.70
2022-08-19T07:20:49.511Z,0.80
2022-08-19T07:21:49.512Z,0.80
2022-08-19T07:22:49.511Z,0.70
2022-08-19T07:23:49.512Z,0.80
2022-08-19T07:24:51.522Z,0.60
2022-08-19T07:25:53.157Z,0.70
2022-08-19T07:26:51.949Z,0.70
2022-08-19T07:27:54.201Z,0.60
2022-08-19T07:28:51.285Z,0.90
2022-08-19T07:29:56.035Z,0.70
2022-08-19T07:30:49.518Z,0.70
2022-08-19T07:31:49.536Z,0.90
2022-08-19T07:32:49.518Z,0.90
2022-08-19T07:33:49.518Z,0.80
2022-08-19T07:34:49.520Z,0.70
2022-08-19T07:35:49.519Z,0.90
2022-08-19T07:36:49.523Z,0.80
2022-08-19T07:37:49.553Z,0.80
2022-08-19T07:38:49.522Z,0.80
2022-08-19T07:39:49.557Z,0.70
2022-08-19T07:40:49.524Z,0.70
2022-08-19T07:41:49.525Z,0.70
2022-08-19T07:42:49.525Z,0.70
2022-08-19T07:43:49.525Z,0.80
2022-08-19T07:44:50.788Z,0.80
2022-08-19T07:45:49.528Z,0.80
2022-08-19T07:46:51.526Z,0.70
2022-08-19T07:47:51.364Z,0.80
2022-08-19T07:48:49.531Z,0.60
2022-08-19T07:49:49.531Z,0.80
2022-08-19T07:50:49.530Z,0.70
2022-08-19T07:51:49.531Z,0.80
2022-08-19T07:52:49.532Z,0.70
2022-08-19T07:53:49.533Z,0.70
2022-08-19T07:54:49.534Z,0.90
2022-08-19T07:55:49.533Z,0.90
2022-08-19T07:56:49.535Z,0.80
2022-08-19T07:57:49.536Z,0.90
2022-08-19T07:58:49.582Z,0.90
2022-08-19T07:59:49.537Z,0.70
2022-08-19T08:00:49.539Z,0.80
2022-08-19T08:01:49.588Z,0.80
2022-08-19T08:02:49.641Z,0.70
2022-08-19T08:03:49.539Z,0.90
2022-08-19T08:04:49.541Z,0.80
2022-08-19T08:05:49.542Z,0.70
2022-08-19T08:06:49.543Z,0.70
2022-08-19T08:07:49.542Z,0.80
2022-08-19T08:08:49.544Z,0.90
2022-08-19T08:09:50.206Z,0.80
2022-08-19T08:10:54.569Z,0.80
2022-08-19T08:11:49.545Z,0.70
2022-08-19T08:13:09.492Z,0.70
2022-08-19T08:14:00.383Z,0.80
2022-08-19T08:14:49.548Z,0.70
2022-08-19T08:15:49.547Z,0.90
2022-08-19T08:16:49.549Z,0.80
2022-08-19T08:17:51.622Z,0.90
2022-08-19T08:18:50.515Z,0.80
2022-08-19T08:19:49.549Z,0.80
2022-08-19T08:20:49.552Z,0.90
2022-08-19T08:21:49.556Z,0.80
2022-08-19T08:22:49.583Z,0.80
2022-08-19T08:23:51.055Z,0.80
2022-08-19T08:24:49.556Z,0.80
2022-08-19T08:25:49.554Z,0.70
2022-08-19T08:26:52.013Z,0.70
2022-08-19T08:27:49.557Z,0.60
2022-08-19T08:28:49.731Z,0.80
2022-08-19T08:29:49.558Z,0.70
2022-08-19T08:30:50.788Z,0.70
2022-08-19T08:31:49.558Z,0.80
2022-08-19T08:32:49.559Z,0.80
2022-08-19T08:33:49.812Z,1.00
2022-08-19T08:34:51.793Z,0.80
2022-08-19T08:35:49.561Z,0.80
2022-08-19T08:36:49.563Z,0.80
2022-08-19T08:37:51.110Z,0.70
2022-08-19T08:38:49.601Z,0.80
2022-08-19T08:39:49.653Z,0.80
2022-08-19T08:40:49.569Z,1.00
2022-08-19T08:41:49.566Z,0.80
2022-08-19T08:42:49.567Z,0.90
2022-08-19T08:43:49.566Z,0.80
2022-08-19T08:44:49.608Z,0.90
2022-08-19T08:45:53.530Z,0.80
2022-08-19T08:46:49.569Z,0.90
2022-08-19T08:47:49.568Z,0.80
2022-08-19T08:48:52.684Z,0.80
2022-08-19T08:49:51.359Z,0.80
2022-08-19T08:50:49.574Z,0.90
2022-08-19T08:51:56.202Z,0.80
2022-08-19T08:52:49.573Z,1.00
2022-08-19T08:53:49.573Z,1.00
2022-08-19T08:54:54.949Z,0.90
2022-08-19T08:55:49.575Z,0.90
2022-08-19T08:56:49.576Z,0.90
2022-08-19T08:57:49.577Z,0.90
2022-08-19T08:58:54.411Z,0.90
2022-08-19T08:59:49.578Z,0.90
2022-08-19T09:00:49.579Z,1.10
2022-08-19T09:01:49.743Z,1.00
2022-08-19T09:02:50.448Z,0.90
2022-08-19T09:03:49.586Z,0.90
2022-08-19T09:04:49.582Z,0.90
2022-08-19T09:05:49.583Z,0.90
2022-08-19T09:06:49.581Z,0.80
2022-08-19T09:07:49.583Z,0.90
2022-08-19T09:08:49.586Z,0.80
2022-08-19T09:09:49.588Z,0.90
2022-08-19T09:10:49.584Z,0.90
2022-08-19T09:11:49.585Z,0.80
2022-08-19T09:12:49.592Z,0.70
2022-08-19T09:13:49.587Z,0.80
2022-08-19T09:14:51.864Z,0.90
2022-08-19T09:15:49.589Z,0.90
2022-08-19T09:16:49.589Z,0.90
2022-08-19T09:17:50.113Z,0.90
2022-08-19T09:18:49.590Z,0.90
2022-08-19T09:19:49.591Z,0.90
2022-08-19T09:20:49.591Z,0.90
2022-08-19T09:21:49.593Z,0.80
2022-08-19T09:22:49.602Z,0.90
2022-08-19T09:23:50.974Z,0.80
2022-08-19T09:24:49.594Z,1.00
2022-08-19T09:25:49.596Z,1.00
2022-08-19T09:26:52.492Z,0.90
2022-08-19T09:27:49.596Z,1.00
2022-08-19T09:28:49.597Z,0.90
2022-08-19T09:29:49.599Z,0.60
2022-08-19T09:30:49.602Z,0.80
2022-08-19T09:31:49.599Z,0.90
2022-08-19T09:32:52.922Z,1.00
2022-08-19T09:33:49.600Z,0.80
2022-08-19T09:34:51.275Z,0.90
2022-08-19T09:35:53.264Z,1.00
2022-08-19T09:36:49.602Z,1.00
2022-08-19T09:37:49.641Z,0.80
2022-08-19T09:38:49.603Z,0.90
2022-08-19T09:39:49.692Z,1.00
2022-08-19T09:40:49.604Z,0.80
2022-08-19T09:41:49.606Z,0.90
2022-08-19T09:42:50.943Z,0.80
2022-08-19T09:43:49.606Z,0.80
2022-08-19T09:44:49.608Z,0.90
2022-08-19T09:45:49.611Z,1.00
2022-08-19T09:46:49.611Z,0.90
2022-08-19T09:47:49.676Z,0.70
2022-08-19T09:48:49.611Z,0.80
2022-08-19T09:49:49.616Z,0.90
2022-08-19T09:50:51.449Z,0.80
2022-08-19T09:51:51.215Z,0.90
2022-08-19T09:52:55.130Z,1.10
2022-08-19T09:53:49.615Z,0.90
2022-08-19T09:54:51.936Z,0.90
2022-08-19T09:55:49.615Z,0.90
2022-08-19T09:56:49.615Z,0.90
2022-08-19T09:57:49.649Z,0.90
2022-08-19T09:58:49.616Z,1.00
2022-08-19T09:59:49.618Z,0.90
2022-08-19T10:00:51.544Z,0.90
2022-08-19T10:01:49.620Z,0.90
2022-08-19T10:02:49.618Z,0.90
2022-08-19T10:03:49.620Z,0.80
2022-08-19T10:04:49.621Z,0.90
2022-08-19T10:05:49.621Z,1.10
2022-08-19T10:06:53.497Z,1.00
2022-08-19T10:07:49.666Z,0.80
2022-08-19T10:08:49.870Z,1.00
2022-08-19T10:09:49.626Z,1.00
2022-08-19T10:10:49.629Z,0.90
2022-08-19T10:11:54.733Z,1.00
2022-08-19T10:12:49.627Z,1.00
2022-08-19T10:13:49.630Z,0.90
2022-08-19T10:14:49.627Z,1.00
2022-08-19T10:15:49.635Z,0.90
2022-08-19T10:16:49.629Z,0.90
2022-08-19T10:17:55.060Z,1.10
2022-08-19T10:18:49.912Z,0.90
2022-08-19T10:19:55.253Z,0.90
2022-08-19T10:20:51.373Z,1.20
2022-08-19T10:21:49.632Z,1.00
2022-08-19T10:22:49.631Z,0.90
2022-08-19T10:23:49.633Z,1.00
2022-08-19T10:24:49.634Z,1.00
2022-08-19T10:25:49.639Z,0.90
2022-08-19T10:26:55.901Z,0.90
2022-08-19T10:27:51.283Z,0.90
2022-08-19T10:28:49.638Z,1.00
2022-08-19T10:29:49.639Z,0.90
2022-08-19T10:30:49.637Z,1.00
2022-08-19T10:32:00.558Z,1.10
2022-08-19T10:32:49.638Z,1.00
2022-08-19T10:33:54.114Z,1.00
2022-08-19T10:34:49.643Z,0.90
2022-08-19T10:35:56.795Z,1.00
2022-08-19T10:36:52.291Z,1.10
2022-08-19T10:37:57.543Z,0.80
2022-08-19T10:38:52.320Z,1.10
2022-08-19T10:39:49.679Z,0.80
2022-08-19T10:40:49.645Z,0.90
2022-08-19T10:41:49.648Z,1.00
2022-08-19T10:42:49.647Z,1.10
2022-08-19T10:43:49.647Z,0.90
2022-08-19T10:44:49.648Z,1.00
2022-08-19T10:45:52.586Z,1.00
2022-08-19T10:46:49.649Z,1.10
2022-08-19T10:47:49.747Z,0.90
2022-08-19T10:48:49.650Z,0.90
2022-08-19T10:49:49.654Z,1.10
2022-08-19T10:50:49.651Z,1.00
2022-08-19T10:51:49.652Z,1.00
2022-08-19T10:52:50.752Z,1.10
2022-08-19T10:53:49.656Z,1.00
2022-08-19T10:54:49.652Z,1.00
2022-08-19T10:55:49.655Z,0.90
2022-08-19T10:56:49.655Z,1.20
2022-08-19T10:58:02.192Z,0.80
2022-08-19T10:58:49.658Z,1.00
2022-08-19T10:59:49.658Z,0.90
2022-08-19T11:00:49.666Z,1.00
2022-08-19T11:01:49.660Z,1.00
2022-08-19T11:02:49.659Z,1.10
2022-08-19T11:03:49.661Z,1.00
2022-08-19T11:04:49.661Z,0.90
2022-08-19T11:05:49.664Z,1.20
2022-08-19T11:06:49.661Z,1.00
2022-08-19T11:07:49.722Z,0.90
2022-08-19T11:08:49.663Z,0.90
2022-08-19T11:09:49.666Z,1.00
2022-08-19T11:10:50.384Z,1.10
2022-08-19T11:11:49.667Z,1.00
2022-08-19T11:12:49.678Z,1.00
2022-08-19T11:13:49.669Z,1.00
2022-08-19T11:14:49.667Z,1.10
2022-08-19T11:15:49.669Z,1.00
2022-08-19T11:16:49.669Z,0.90
2022-08-19T11:17:49.751Z,1.00
2022-08-19T11:18:49.670Z,1.10
2022-08-19T11:19:49.677Z,1.10
2022-08-19T11:20:49.672Z,1.00
2022-08-19T11:21:49.673Z,1.10
2022-08-19T11:22:49.672Z,0.90
2022-08-19T11:23:49.680Z,1.00
2022-08-19T11:24:49.677Z,1.10
2022-08-19T11:25:49.676Z,0.90
2022-08-19T11:26:49.675Z,1.00
2022-08-19T11:27:49.721Z,1.10
2022-08-19T11:28:49.678Z,1.10
2022-08-19T11:29:49.680Z,1.00
2022-08-19T11:30:49.679Z,1.00
2022-08-19T11:31:49.679Z,1.10
2022-08-19T11:32:49.760Z,1.10
2022-08-19T11:33:49.834Z,1.10
2022-08-19T11:34:49.681Z,1.10
2022-08-19T11:35:49.684Z,1.20
2022-08-19T11:36:49.684Z,1.10
2022-08-19T11:37:49.755Z,0.90
2022-08-19T11:38:49.684Z,1.00
2022-08-19T11:39:53.338Z,1.10
2022-08-19T11:40:49.685Z,1.00
2022-08-19T11:41:49.686Z,1.00
2022-08-19T11:42:49.685Z,1.10
2022-08-19T11:43:49.688Z,1.30
2022-08-19T11:44:49.689Z,1.10
2022-08-19T11:45:49.692Z,1.10
2022-08-19T11:46:49.689Z,1.10
2022-08-19T11:47:49.740Z,1.00
2022-08-19T11:48:49.690Z,1.00
2022-08-19T11:49:49.693Z,1.00
2022-08-19T11:50:49.692Z,1.10
2022-08-19T11:51:49.693Z,1.00
2022-08-19T11:52:49.693Z,1.20
2022-08-19T11:53:49.695Z,0.90
2022-08-19T11:54:49.695Z,1.00
2022-08-19T11:55:49.696Z,0.90
2022-08-19T11:56:49.696Z,1.00
2022-08-19T11:57:49.765Z,1.00
2022-08-19T11:58:49.696Z,1.00
2022-08-19T11:59:49.699Z,1.10
2022-08-19T12:00:49.699Z,1.00
2022-08-19T12:01:49.701Z,1.10
2022-08-19T12:02:49.700Z,1.10
2022-08-19T12:03:49.794Z,1.00
2022-08-19T12:04:49.701Z,1.10
2022-08-19T12:05:49.704Z,0.90
2022-08-19T12:06:49.704Z,1.00
2022-08-19T12:07:49.740Z,1.00
2022-08-19T12:08:49.704Z,1.00
2022-08-19T12:09:49.718Z,1.00
2022-08-19T12:10:49.706Z,1.00
2022-08-19T12:11:49.707Z,1.10
2022-08-19T12:12:58.524Z,1.10
2022-08-19T12:13:49.710Z,1.10
2022-08-19T12:14:49.711Z,1.10
2022-08-19T12:15:49.717Z,1.10
2022-08-19T12:16:52.056Z,1.10
2022-08-19T12:17:49.712Z,1.10
2022-08-19T12:18:49.711Z,1.00
2022-08-19T12:19:49.713Z,1.10
2022-08-19T12:20:49.712Z,1.00
2022-08-19T12:21:49.724Z,1.00
2022-08-19T12:22:49.722Z,1.10
2022-08-19T12:23:53.832Z,1.00
2022-08-19T12:24:49.719Z,1.00
2022-08-19T12:25:49.717Z,1.20
2022-08-19T12:26:52.554Z,1.30
2022-08-19T12:27:57.333Z,1.00
2022-08-19T12:28:49.723Z,1.00
2022-08-19T12:29:49.721Z,1.10
2022-08-19T12:30:49.719Z,1.20
2022-08-19T12:31:49.722Z,1.00
2022-08-19T12:32:49.720Z,1.10
2022-08-19T12:33:49.723Z,1.00
2022-08-19T12:34:49.721Z,1.10
2022-08-19T12:35:49.728Z,1.10
2022-08-19T12:36:49.724Z,1.10
2022-08-19T12:37:56.691Z,0.80
2022-08-19T12:38:49.725Z,1.10
2022-08-19T12:39:49.779Z,0.90
2022-08-19T12:40:49.727Z,1.00
2022-08-19T12:41:51.694Z,1.00
2022-08-19T12:42:49.728Z,1.00
2022-08-19T12:43:49.729Z,0.90
2022-08-19T12:44:49.729Z,1.10
2022-08-19T12:45:49.732Z,1.10
2022-08-19T12:46:49.730Z,1.00
2022-08-19T12:47:49.960Z,1.00
2022-08-19T12:48:51.124Z,1.10
2022-08-19T12:49:54.113Z,1.10
2022-08-19T12:50:49.733Z,1.00
2022-08-19T12:51:49.736Z,1.00
2022-08-19T12:52:49.735Z,1.00
2022-08-19T12:53:49.737Z,1.10
2022-08-19T12:54:49.736Z,1.10
2022-08-19T12:55:49.738Z,1.00
2022-08-19T12:56:49.737Z,1.00
2022-08-19T12:57:49.766Z,0.90
2022-08-19T12:58:50.737Z,1.10
2022-08-19T12:59:49.740Z,0.90
2022-08-19T13:00:49.786Z,1.10
2022-08-19T13:01:49.742Z,1.10
2022-08-19T13:02:49.740Z,1.10
2022-08-19T13:03:49.746Z,1.00
2022-08-19T13:04:49.743Z,1.00
2022-08-19T13:05:49.753Z,1.00
2022-08-19T13:06:49.743Z,1.10
2022-08-19T13:07:49.773Z,1.00
2022-08-19T13:08:49.746Z,0.90
2022-08-19T13:09:49.749Z,1.10
2022-08-19T13:10:49.747Z,1.00
2022-08-19T13:11:49.750Z,1.00
2022-08-19T13:12:49.747Z,1.00
2022-08-19T13:13:49.749Z,1.20
2022-08-19T13:14:49.750Z,1.10
2022-08-19T13:15:49.752Z,1.00
2022-08-19T13:16:49.752Z,0.90
2022-08-19T13:17:49.751Z,1.10
2022-08-19T13:18:49.755Z,1.10
2022-08-19T13:19:49.754Z,1.00